createdAt,value
2023-01-20T00:01:28.153Z,21.70
2023-01-20T00:03:55.704Z,24.80
2023-01-20T00:06:23.477Z,25.80
2023-01-20T00:08:54.620Z,24.10
2023-01-20T00:11:21.733Z,25.40
2023-01-20T00:13:48.983Z,24.10
2023-01-20T00:16:16.205Z,24.50
2023-01-20T00:18:43.309Z,23.30
2023-01-20T00:21:12.281Z,22.50
2023-01-20T00:23:39.689Z,22.60
2023-01-20T00:26:07.646Z,23.70
2023-01-20T00:28:35.276Z,24.60
2023-01-20T00:31:24.073Z,22.20
2023-01-20T00:33:51.798Z,23.00
2023-01-20T00:36:19.853Z,23.80
2023-01-20T00:38:47.071Z,21.40
2023-01-20T00:41:14.171Z,23.10
2023-01-20T00:43:41.369Z,22.50
2023-01-20T00:46:08.612Z,23.50
2023-01-20T00:48:35.935Z,23.00
2023-01-20T00:51:03.404Z,22.50
2023-01-20T00:53:30.471Z,23.40
2023-01-20T00:55:57.615Z,23.70
2023-01-20T00:58:25.058Z,23.90
2023-01-20T01:00:52.721Z,22.50
2023-01-20T01:03:20.167Z,23.60
2023-01-20T01:05:47.448Z,23.90
2023-01-20T01:08:14.542Z,23.80
2023-01-20T01:10:41.773Z,25.10
2023-01-20T01:13:08.973Z,25.00
2023-01-20T01:15:36.294Z,22.60
2023-01-20T01:18:03.527Z,25.90
2023-01-20T01:20:30.776Z,22.80
2023-01-20T01:22:57.904Z,22.90
2023-01-20T01:25:24.992Z,25.30
2023-01-20T01:27:52.195Z,21.60
2023-01-20T01:30:19.396Z,22.50
2023-01-20T01:32:47.562Z,21.10
2023-01-20T01:35:15.089Z,21.40
2023-01-20T01:37:42.414Z,23.30
2023-01-20T01:40:10.522Z,23.40
2023-01-20T01:42:37.689Z,21.90
2023-01-20T01:45:11.075Z,22.00
2023-01-20T01:47:46.508Z,23.10
2023-01-20T01:50:38.557Z,24.20
2023-01-20T01:53:05.715Z,22.20
2023-01-20T01:55:35.336Z,21.00
2023-01-20T01:58:02.392Z,23.40
2023-01-20T02:00:29.669Z,21.50
2023-01-20T02:02:56.870Z,21.60
2023-01-20T02:05:24.558Z,21.70
2023-01-20T02:07:51.709Z,20.00
2023-01-20T02:10:18.834Z,20.70
2023-01-20T02:12:49.601Z,21.00
2023-01-20T02:15:17.437Z,21.60
2023-01-20T02:17:50.608Z,22.10
2023-01-20T02:20:48.098Z,21.30
2023-01-20T02:23:33.413Z,21.50
2023-01-20T02:26:22.130Z,21.00
2023-01-20T02:28:52.393Z,20.80
2023-01-20T02:31:43.904Z,19.60
2023-01-20T02:34:35.794Z,21.90
2023-01-20T02:37:28.535Z,20.70
2023-01-20T02:40:13.376Z,19.80
2023-01-20T02:42:57.753Z,20.90
2023-01-20T02:45:46.684Z,20.70
2023-01-20T02:48:53.517Z,21.30
2023-01-20T02:51:24.527Z,18.30
2023-01-20T02:54:01.020Z,21.20
2023-01-20T02:56:28.973Z,20.10
2023-01-20T02:58:58.377Z,19.50
2023-01-20T03:01:29.988Z,18.90
2023-01-20T03:03:58.570Z,20.80
2023-01-20T03:06:27.408Z,22.20
2023-01-20T03:08:54.700Z,21.60
2023-01-20T03:11:21.820Z,18.60
2023-01-20T03:13:55.195Z,21.50
2023-01-20T03:16:23.527Z,20.20
2023-01-20T03:18:50.939Z,21.70
2023-01-20T03:21:18.217Z,18.80
2023-01-20T03:24:05.590Z,21.90
2023-01-20T03:26:32.659Z,20.70
2023-01-20T03:29:01.497Z,20.10
2023-01-20T03:31:35.782Z,19.70
2023-01-20T03:34:04.182Z,20.90
2023-01-20T03:36:31.357Z,19.80
2023-01-20T03:38:58.652Z,19.60
2023-01-20T03:41:56.676Z,20.60
2023-01-20T03:44:30.387Z,20.80
2023-01-20T03:49:40.665Z,17.90
2023-01-20T03:52:13.939Z,19.80
2023-01-20T03:54:48.942Z,20.10
2023-01-20T03:57:18.781Z,17.90
2023-01-20T03:59:46.011Z,19.60
2023-01-20T04:02:13.303Z,18.90
2023-01-20T04:04:41.350Z,20.10
2023-01-20T04:07:11.803Z,18.90
2023-01-20T04:09:40.981Z,20.00
2023-01-20T04:12:08.126Z,20.80
2023-01-20T04:14:36.106Z,22.80
2023-01-20T04:17:03.880Z,20.40
2023-01-20T04:19:31.157Z,22.60
2023-01-20T04:22:00.698Z,22.80
2023-01-20T04:25:01.360Z,19.00
2023-01-20T04:27:28.842Z,22.30
2023-01-20T04:29:55.937Z,21.10
2023-01-20T04:32:23.080Z,20.60
2023-01-20T04:34:53.980Z,21.80
2023-01-20T04:37:21.188Z,21.00
2023-01-20T04:39:48.250Z,21.00
2023-01-20T04:42:15.388Z,20.70
2023-01-20T04:44:42.432Z,20.60
2023-01-20T04:47:09.668Z,20.40
2023-01-20T04:49:37.239Z,18.80
2023-01-20T04:52:04.607Z,20.10
2023-01-20T04:54:31.900Z,23.10
2023-01-20T04:56:59.004Z,21.80
2023-01-20T04:59:26.000Z,20.20
2023-01-20T05:01:53.259Z,20.70
2023-01-20T05:04:20.642Z,20.70
2023-01-20T05:06:47.828Z,20.60
2023-01-20T05:09:15.935Z,22.60
2023-01-20T05:11:43.696Z,22.70
2023-01-20T05:14:14.057Z,23.20
2023-01-20T05:16:41.377Z,22.90
2023-01-20T05:19:08.933Z,23.70
2023-01-20T05:21:36.040Z,23.60
2023-01-20T05:24:03.165Z,21.30
2023-01-20T05:26:30.273Z,21.80
2023-01-20T05:28:57.560Z,22.10
2023-01-20T05:31:24.782Z,22.70
2023-01-20T05:33:51.958Z,23.30
2023-01-20T05:36:19.159Z,21.40
2023-01-20T05:38:46.326Z,24.40
2023-01-20T05:41:13.525Z,23.90
2023-01-20T05:43:40.649Z,26.30
2023-01-20T05:46:07.864Z,24.50
2023-01-20T05:48:35.062Z,23.10
2023-01-20T05:51:02.324Z,26.00
2023-01-20T05:53:29.472Z,24.00
2023-01-20T05:56:01.546Z,24.80
2023-01-20T05:58:29.304Z,24.70
2023-01-20T06:01:00.410Z,25.40
2023-01-20T06:03:27.654Z,24.40
2023-01-20T06:06:00.403Z,25.40
2023-01-20T06:08:27.615Z,24.50
2023-01-20T06:10:54.745Z,26.10
2023-01-20T10:23:52.418Z,22.60
2023-01-20T10:26:27.134Z,24.60
2023-01-20T10:29:04.299Z,20.60
2023-01-20T10:31:34.193Z,22.20
2023-01-20T10:34:09.331Z,23.40
2023-01-20T10:36:36.830Z,21.00
2023-01-20T10:39:26.010Z,22.70
2023-01-20T10:42:02.505Z,22.30
2023-01-20T10:44:29.850Z,23.10
2023-01-20T10:47:18.762Z,21.90
2023-01-20T10:49:58.007Z,21.30
2023-01-20T10:52:37.805Z,22.90
2023-01-20T10:55:30.559Z,19.00
2023-01-20T10:58:32.399Z,21.20
2023-01-20T11:01:03.008Z,21.90
2023-01-20T11:03:33.339Z,22.90
2023-01-20T11:06:01.276Z,21.80
2023-01-20T11:08:29.393Z,21.00
2023-01-20T11:10:58.127Z,21.40
2023-01-20T11:13:25.511Z,20.50
2023-01-20T11:15:57.849Z,20.20
2023-01-20T11:18:32.083Z,19.20
2023-01-20T11:21:09.094Z,19.80
2023-01-20T11:23:56.016Z,19.10
2023-01-20T11:26:28.420Z,20.10
2023-01-20T11:29:03.034Z,21.00
2023-01-20T11:31:45.233Z,21.00
2023-01-20T11:34:31.454Z,21.30
2023-01-20T11:37:21.903Z,20.70
2023-01-20T11:39:49.553Z,21.50
2023-01-20T11:42:27.874Z,22.40
2023-01-20T11:45:20.908Z,21.60
2023-01-20T11:48:16.638Z,18.90
2023-01-20T11:50:50.442Z,20.50
2023-01-20T11:53:38.488Z,18.90
2023-01-20T11:56:15.782Z,20.90
2023-01-20T11:58:59.247Z,19.60
2023-01-20T12:01:27.966Z,18.70
2023-01-20T12:04:02.359Z,18.20
2023-01-20T12:06:45.954Z,19.50
2023-01-20T12:09:17.514Z,19.00
2023-01-20T12:11:51.257Z,19.90
2023-01-20T12:14:25.353Z,20.40
2023-01-20T12:17:11.647Z,18.40
2023-01-20T12:19:50.821Z,19.10
2023-01-20T12:22:21.428Z,19.10
2023-01-20T12:25:20.508Z,19.40
2023-01-20T12:27:50.905Z,19.90
2023-01-20T12:30:44.651Z,19.10
2023-01-20T12:33:17.712Z,17.10
2023-01-20T12:35:53.541Z,18.80
2023-01-20T12:38:21.063Z,18.40
2023-01-20T12:40:49.741Z,18.20
2023-01-20T12:43:22.968Z,19.40
2023-01-20T12:45:54.854Z,19.40
2023-01-20T12:48:32.313Z,19.70
2023-01-20T12:51:21.317Z,18.90
2023-01-20T12:54:47.997Z,18.80
2023-01-20T12:57:35.085Z,20.50
2023-01-20T13:00:09.549Z,20.50
2023-01-20T13:03:14.469Z,21.20
2023-01-20T13:06:07.613Z,21.20
2023-01-20T13:09:04.475Z,19.60
2023-01-20T13:11:50.764Z,20.90
2023-01-20T13:14:19.135Z,21.60
2023-01-20T13:17:19.236Z,21.50
2023-01-20T13:19:49.489Z,19.60
2023-01-20T13:22:20.481Z,22.00
2023-01-20T13:24:49.905Z,22.40
2023-01-20T13:27:33.235Z,21.50
2023-01-20T13:30:03.357Z,20.30
2023-01-20T13:32:38.469Z,22.30
2023-01-20T13:35:33.542Z,20.20
2023-01-20T13:38:01.511Z,19.40
2023-01-20T13:40:38.532Z,22.80
2023-01-20T13:43:26.865Z,23.60
2023-01-20T13:46:03.757Z,23.70
2023-01-20T13:48:32.513Z,22.50
2023-01-20T13:51:15.380Z,22.50
2023-01-20T13:53:45.986Z,24.00
2023-01-20T13:56:33.679Z,21.80
2023-01-20T13:59:02.016Z,21.40
2023-01-20T14:01:29.385Z,22.10
2023-01-20T18:15:15.705Z,25.30
2023-01-20T18:17:44.421Z,22.40
2023-01-20T18:20:12.383Z,22.60
2023-01-20T18:22:39.785Z,21.90
2023-01-20T18:25:07.568Z,19.90
2023-01-20T18:27:35.113Z,19.60
2023-01-20T18:30:04.027Z,21.30
2023-01-20T18:32:31.586Z,20.90
2023-01-20T18:34:59.695Z,20.20
2023-01-20T18:37:27.394Z,22.40
2023-01-20T18:39:54.846Z,21.60
2023-01-20T18:42:22.334Z,20.40
2023-01-20T18:44:49.556Z,20.60
2023-01-20T18:47:16.810Z,22.10
2023-01-20T18:49:44.718Z,22.70
2023-01-20T18:52:12.290Z,23.20
2023-01-20T18:54:39.996Z,21.90
2023-01-20T18:57:09.002Z,22.60
2023-01-20T18:59:39.439Z,22.60
2023-01-20T19:02:06.850Z,21.10
2023-01-20T19:04:36.007Z,22.40
2023-01-20T19:07:03.167Z,21.30
2023-01-20T19:09:30.816Z,23.60
2023-01-20T19:11:58.386Z,19.40
2023-01-20T19:14:26.201Z,20.00
2023-01-20T19:16:53.973Z,22.40
2023-01-20T19:19:21.433Z,23.50
2023-01-20T19:21:52.987Z,22.70
2023-01-20T19:24:21.358Z,23.00
2023-01-20T19:26:49.369Z,21.10
2023-01-20T19:29:17.767Z,22.40
2023-01-20T19:31:45.011Z,22.30
2023-01-20T19:34:12.885Z,22.20
2023-01-20T19:36:40.375Z,19.00
2023-01-20T19:39:07.425Z,21.70
2023-01-20T19:41:36.347Z,19.90
2023-01-20T19:44:05.263Z,21.70
2023-01-20T19:46:34.120Z,23.80
2023-01-20T19:49:02.722Z,20.40
2023-01-20T19:51:31.632Z,17.50
2023-01-20T19:54:00.416Z,19.70
2023-01-20T19:56:29.075Z,22.00
2023-01-20T19:58:56.473Z,18.80
2023-01-20T20:01:31.789Z,21.20
2023-01-20T20:03:59.612Z,20.30
2023-01-20T20:06:48.964Z,21.50
2023-01-20T20:09:18.203Z,19.40
2023-01-20T20:11:46.396Z,19.20
2023-01-20T20:14:15.755Z,18.20
2023-01-20T20:16:43.359Z,19.90
2023-01-20T20:19:13.032Z,19.30
2023-01-20T20:21:40.131Z,17.80
2023-01-20T20:24:08.073Z,20.50
2023-01-20T20:26:36.208Z,20.40
2023-01-20T20:29:04.830Z,22.50
2023-01-20T20:31:32.833Z,18.70
2023-01-20T20:34:00.971Z,19.20
2023-01-20T20:36:29.864Z,20.20
2023-01-20T20:38:58.922Z,19.90
2023-01-20T20:41:29.218Z,19.50
2023-01-20T20:43:57.061Z,18.70
2023-01-20T20:46:24.547Z,18.00
2023-01-20T20:48:56.079Z,18.40
2023-01-20T20:51:26.009Z,18.90
2023-01-20T20:53:54.734Z,17.70
2023-01-20T20:56:23.058Z,17.90
2023-01-20T20:59:00.951Z,17.30
2023-01-20T21:01:30.516Z,16.30
2023-01-20T21:03:58.354Z,15.60
2023-01-20T21:06:26.929Z,18.80
2023-01-20T21:08:55.090Z,15.50
2023-01-20T21:11:24.713Z,16.10
2023-01-20T21:13:52.647Z,18.10
2023-01-20T21:16:22.397Z,16.50
2023-01-20T21:18:51.307Z,17.40
2023-01-20T21:21:19.710Z,17.10
2023-01-20T21:23:51.077Z,17.50
2023-01-20T21:26:18.274Z,16.90
2023-01-20T21:28:49.660Z,17.50
2023-01-20T21:31:19.436Z,17.30
2023-01-20T21:33:47.068Z,14.50
2023-01-20T21:36:14.816Z,15.80
2023-01-20T21:38:44.827Z,15.70
2023-01-20T21:41:13.871Z,16.00
2023-01-20T21:44:01.506Z,15.90
2023-01-20T21:46:31.142Z,14.40
2023-01-20T21:49:18.691Z,15.60
2023-01-20T21:52:04.567Z,15.00
2023-01-20T21:54:32.974Z,14.40
2023-01-20T21:57:00.894Z,14.50
2023-01-20T21:59:29.173Z,15.80
2023-01-20T22:01:56.589Z,14.70
2023-01-20T22:04:24.241Z,13.80
2023-01-20T22:06:51.439Z,13.90
2023-01-20T22:09:19.147Z,13.40
2023-01-20T22:11:47.015Z,13.50
2023-01-20T22:14:14.407Z,14.20
2023-01-20T22:16:42.129Z,14.20
2023-01-20T22:19:14.790Z,15.20
2023-01-20T22:21:42.525Z,14.80
2023-01-20T22:24:10.700Z,14.90
2023-01-20T22:26:38.782Z,16.40
2023-01-20T22:29:07.279Z,16.10
2023-01-20T22:31:35.740Z,16.20
2023-01-20T22:34:05.628Z,16.20
2023-01-20T22:36:33.462Z,15.80
2023-01-20T22:39:01.207Z,14.40
2023-01-20T22:41:28.457Z,13.00
2023-01-20T22:43:56.545Z,12.10
2023-01-20T22:46:25.909Z,13.50
2023-01-20T22:48:54.658Z,13.10
2023-01-20T22:51:23.394Z,11.70
2023-01-20T22:53:52.702Z,12.80
2023-01-20T22:56:21.874Z,11.70
2023-01-20T22:58:49.136Z,12.20
2023-01-20T23:01:21.145Z,13.20
2023-01-20T23:03:48.768Z,12.50
2023-01-20T23:06:16.624Z,11.50
2023-01-20T23:08:44.152Z,12.40
2023-01-20T23:11:13.333Z,13.20
2023-01-20T23:13:40.900Z,12.70
2023-01-20T23:16:10.820Z,11.70
2023-01-20T23:18:38.632Z,10.70
2023-01-20T23:21:06.401Z,13.00
2023-01-20T23:23:34.404Z,12.00
2023-01-20T23:26:02.589Z,11.30
2023-01-20T23:28:30.642Z,10.50
2023-01-20T23:31:06.061Z,10.20
2023-01-20T23:33:34.367Z,10.10
2023-01-20T23:36:09.682Z,11.30
2023-01-20T23:38:37.286Z,11.80
2023-01-20T23:41:05.305Z,11.60
2023-01-20T23:43:32.434Z,11.20
2023-01-20T23:46:00.320Z,10.70
2023-01-20T23:48:28.376Z,11.30
2023-01-20T23:50:56.697Z,10.70
2023-01-20T23:53:24.307Z,9.60
2023-01-20T23:55:51.550Z,11.60
2023-01-20T23:58:19.039Z,9.70
